Time;durP1;ratioP1;P1;durP2;ratioP2;P2;SDS_P1;SDS_P2;PMS_P1;PMS_P2;Temp;Humidity;BMP_temperature;BMP_pressure;BME280_temperature;BME280_humidity;BME280_pressure;Samples;Min_cycle;Max_cycle;Signal;HPM_P1;HPM_P2
2023/12/13 00:01:48;;;;;;;91.85;87.88;;;;;;;11.02;69.87;99543.13;5021851;28;20397;-73
2023/12/13 00:04:13;;;;;;;92.88;88.85;;;;;;;11.01;70.18;99538.78;5017310;28;20034;-72
2023/12/13 00:06:39;;;;;;;89.72;85.75;;;;;;;11.00;69.96;99531.75;5015651;28;20401;-72
2023/12/13 00:09:08;;;;;;;92.55;88.40;;;;;;;11.00;70.13;99526.38;5015647;28;20045;-72
2023/12/13 00:11:34;;;;;;;90.38;86.07;;;;;;;10.98;70.13;99529.31;5033734;28;20439;-72
2023/12/13 00:13:59;;;;;;;93.25;89.03;;;;;;;11.00;70.16;99529.06;5016710;28;20522;-73
2023/12/13 00:16:24;;;;;;;93.78;89.72;;;;;;;11.00;70.13;99526.38;5024118;28;20071;-72
2023/12/13 00:18:50;;;;;;;92.28;88.28;;;;;;;10.98;70.09;99517.72;5031934;28;20041;-72
2023/12/13 00:21:17;;;;;;;91.25;87.30;;;;;;;10.98;69.99;99523.94;5029820;28;20469;-73
2023/12/13 00:23:46;;;;;;;92.85;88.75;;;;;;;10.97;70.10;99524.22;5038426;28;20044;-72
2023/12/13 00:26:15;;;;;;;;;;;;;;;10.96;70.12;99525.28;5027280;28;20041;-72
2023/12/13 00:28:41;;;;;;;83.32;79.32;;;;;;;10.95;70.04;99531.78;5015183;28;19920;-72
2023/12/13 00:31:07;;;;;;;90.15;86.10;;;;;;;10.93;69.93;99521.25;5031889;28;20044;-71
2023/12/13 00:33:33;;;;;;;87.25;83.47;;;;;;;10.92;70.07;99519.63;5033496;28;20359;-71
2023/12/13 00:35:59;;;;;;;97.72;93.38;;;;;;;10.93;70.07;99523.13;5026594;28;20056;-72
2023/12/13 00:38:24;;;;;;;89.22;85.32;;;;;;;10.92;70.08;99521.53;5030066;28;20401;-72
2023/12/13 00:40:50;;;;;;;92.18;88.18;;;;;;;10.91;70.26;99518.03;5013555;28;20034;-73
2023/12/13 00:43:16;;;;;;;92.93;88.82;;;;;;;10.90;70.35;99524.50;5018930;28;20167;-73
2023/12/13 00:45:41;;;;;;;89.97;85.88;;;;;;;10.92;70.10;99518.81;5013975;28;20089;-72
2023/12/13 00:48:06;;;;;;;92.93;88.65;;;;;;;10.92;70.27;99519.63;5020960;28;20128;-72
2023/12/13 00:50:32;;;;;;;92.43;88.40;;;;;;;10.93;70.07;99526.63;5014107;28;20100;-73
2023/12/13 00:52:57;;;;;;;93.47;88.97;;;;;;;10.93;70.10;99521.25;5031948;28;20039;-72
2023/12/13 00:55:23;;;;;;;86.13;82.32;;;;;;;10.94;70.14;99528.28;5021315;28;20029;-72
2023/12/13 00:57:48;;;;;;;95.97;91.47;;;;;;;10.92;70.22;99522.34;5031590;28;20037;-73
2023/12/13 01:00:14;;;;;;;89.38;85.38;;;;;;;10.91;69.96;99526.13;5031368;28;20473;-72
2023/12/13 01:02:40;;;;;;;91.82;87.85;;;;;;;10.91;70.17;99519.91;5030764;28;20044;-73
2023/12/13 01:05:06;;;;;;;88.60;84.45;;;;;;;10.90;70.20;99519.09;5015559;28;20045;-72
2023/12/13 01:07:32;;;;;;;89.70;85.25;;;;;;;10.91;70.26;99511.78;5016936;28;20034;-72
2023/12/13 01:09:57;;;;;;;93.18;89.07;;;;;;;10.91;70.32;99519.91;5029873;28;20502;-73
2023/12/13 01:12:22;;;;;;;91.85;87.85;;;;;;;10.91;70.19;99518.03;5032385;28;20466;-73
2023/12/13 01:14:48;;;;;;;91.32;87.32;;;;;;;10.91;70.00;99509.91;5037015;28;20033;-73
2023/12/13 01:17:14;;;;;;;92.13;87.97;;;;;;;10.92;70.10;99510.72;5030482;28;20042;-72
2023/12/13 01:19:39;;;;;;;87.95;84.03;;;;;;;10.92;70.11;99513.44;5029975;28;20539;-73
2023/12/13 01:22:05;;;;;;;90.47;86.47;;;;;;;10.91;70.10;99514.50;5031330;28;20037;-73
2023/12/13 01:24:30;;;;;;;89.57;85.65;;;;;;;10.91;70.18;99515.31;5032980;28;20541;-73
2023/12/13 01:26:57;;;;;;;93.35;89.15;;;;;;;10.92;70.17;99508.03;5014931;28;20034;-72
2023/12/13 01:29:22;;;;;;;96.47;92.07;;;;;;;10.92;70.09;99505.31;5023280;28;20041;-72
2023/12/13 01:31:48;;;;;;;93.35;89.28;;;;;;;10.91;70.18;99509.09;5014243;28;20386;-72
2023/12/13 01:34:15;;;;;;;92.70;88.55;;;;;;;10.91;70.28;99503.69;5011860;28;20354;-72
2023/12/13 01:36:43;;;;;;;92.22;87.93;;;;;;;10.91;70.02;99498.28;5013690;28;20052;-73
2023/12/13 01:39:08;;;;;;;93.05;88.93;;;;;;;10.91;70.20;99509.09;5027882;28;20033;-72
2023/12/13 01:41:34;;;;;;;95.47;90.32;;;;;;;10.91;70.05;99509.91;5015487;28;20145;-72
2023/12/13 01:43:59;;;;;;;92.35;88.22;;;;;;;10.90;70.10;99508.28;5029862;28;20048;-73
2023/12/13 01:46:25;;;;;;;89.55;85.43;;;;;;;10.91;69.92;99511.78;5039090;28;20033;-72
2023/12/13 01:48:51;;;;;;;95.82;91.65;;;;;;;10.90;70.00;99511.00;5025702;28;20064;-72
2023/12/13 01:51:17;;;;;;;91.18;87.05;;;;;;;10.90;70.29;99515.59;5015667;28;20501;-72
2023/12/13 01:53:43;;;;;;;89.25;84.85;;;;;;;10.90;70.36;99516.38;5012372;28;20060;-71
2023/12/13 01:56:11;;;;;;;91.82;87.70;;;;;;;10.90;70.21;99521.00;5022358;28;20465;-72
2023/12/13 01:58:38;;;;;;;86.50;82.70;;;;;;;10.90;69.96;99515.59;5045878;28;20095;-72
2023/12/13 02:01:07;;;;;;;90.55;86.40;;;;;;;10.90;70.03;99515.59;5018106;28;20565;-72
2023/12/13 02:03:33;;;;;;;92.38;88.18;;;;;;;10.90;70.21;99515.59;5021748;28;20038;-73
2023/12/13 02:06:01;;;;;;;88.45;84.55;;;;;;;10.89;70.13;99516.69;5020351;28;20033;-72
2023/12/13 02:08:27;;;;;;;92.60;88.53;;;;;;;10.89;70.13;99511.28;5015048;28;20479;-73
2023/12/13 02:10:53;;;;;;;89.85;85.55;;;;;;;10.89;70.36;99511.28;5018508;28;20061;-73
2023/12/13 02:13:18;;;;;;;99.00;94.45;;;;;;;10.88;70.31;99512.34;5016439;28;20116;-73
2023/12/13 02:15:44;;;;;;;96.47;92.13;;;;;;;10.88;70.12;99517.75;5019674;28;20038;-71
2023/12/13 02:18:10;;;;;;;93.07;88.68;;;;;;;10.87;70.28;99508.03;5034790;28;20493;-72
2023/12/13 02:20:36;;;;;;;91.07;87.07;;;;;;;10.87;70.17;99511.53;5030617;28;20041;-72
2023/12/13 02:23:02;;;;;;;91.97;87.65;;;;;;;10.87;69.94;99516.16;5029355;28;20039;-75
2023/12/13 02:25:52;;;;;;;92.07;87.88;;;;;;;10.86;70.22;99512.63;5020713;28;20042;-72
2023/12/13 02:28:18;;;;;;;93.57;89.38;;;;;;;10.85;70.11;99511.00;5031356;28;20024;-72
2023/12/13 02:30:46;;;;;;;94.90;90.68;;;;;;;10.85;70.18;99502.91;5026633;28;20386;-73
2023/12/13 02:33:11;;;;;;;91.90;87.80;;;;;;;10.85;69.95;99500.19;5029282;28;20029;-73
2023/12/13 02:35:37;;;;;;;97.95;93.20;;;;;;;10.85;70.11;99507.50;5029951;28;20025;-72
2023/12/13 02:38:02;;;;;;;92.80;88.75;;;;;;;10.86;69.82;99501.00;5030883;28;20108;-72
2023/12/13 02:40:28;;;;;;;94.22;90.03;;;;;;;10.85;70.09;99497.50;5012094;28;20103;-72
2023/12/13 02:42:54;;;;;;;90.25;85.85;;;;;;;10.85;70.28;99502.09;5020132;28;20091;-73
2023/12/13 02:45:20;;;;;;;92.90;88.72;;;;;;;10.85;70.15;99496.69;5018474;28;20036;-72
2023/12/13 02:47:46;;;;;;;87.75;83.82;;;;;;;10.86;70.01;99496.44;5013354;28;20481;-72
2023/12/13 02:50:13;;;;;;;91.20;86.90;;;;;;;10.85;70.17;99500.19;5027975;28;20079;-72
2023/12/13 02:52:39;;;;;;;88.95;84.85;;;;;;;10.85;69.93;99502.09;5013028;28;20175;-72
2023/12/13 02:55:06;;;;;;;92.93;88.53;;;;;;;10.85;70.10;99502.09;5029806;28;20034;-72
2023/12/13 02:57:32;;;;;;;90.28;86.38;;;;;;;10.85;70.00;99502.09;5019788;28;20042;-72
2023/12/13 02:59:57;;;;;;;92.72;88.32;;;;;;;10.83;69.91;99500.50;5034156;28;20086;-72
2023/12/13 03:02:24;;;;;;;92.45;87.78;;;;;;;10.83;70.21;99500.50;5029963;28;20037;-73
2023/12/13 03:04:49;;;;;;;86.97;83.13;;;;;;;10.83;69.95;99499.66;5029105;28;20550;-72
2023/12/13 03:07:15;;;;;;;89.28;84.45;;;;;;;10.82;70.13;99496.16;5025554;28;20401;-73
2023/12/13 03:09:40;;;;;;;86.95;82.75;;;;;;;10.83;70.05;99499.66;5015888;28;20021;-72
2023/12/13 03:12:06;;;;;;;86.45;82.22;;;;;;;10.82;69.88;99498.84;5010147;28;20040;-74
2023/12/13 03:14:32;;;;;;;93.22;89.13;;;;;;;10.81;70.03;99489.16;5021022;28;20394;-73
2023/12/13 03:16:57;;;;;;;89.35;85.40;;;;;;;10.81;70.02;99491.03;5012416;28;20054;-73
2023/12/13 03:19:23;;;;;;;88.30;83.35;;;;;;;10.81;70.13;99499.94;5010859;28;20129;-73
2023/12/13 03:21:48;;;;;;;90.00;86.05;;;;;;;10.80;70.06;99495.63;5021207;28;20471;-73
2023/12/13 03:24:14;;;;;;;90.40;86.25;;;;;;;10.79;70.04;99494.00;5023154;28;20557;-72
2023/12/13 03:26:39;;;;;;;90.70;86.30;;;;;;;10.80;70.15;99484.00;5029742;28;20041;-72
2023/12/13 03:29:05;;;;;;;84.22;80.50;;;;;;;10.80;69.71;99489.41;5017095;28;20032;-72
2023/12/13 03:31:30;;;;;;;87.38;83.50;;;;;;;10.79;69.91;99485.91;5020532;28;20038;-72
2023/12/13 03:33:55;;;;;;;89.00;84.68;;;;;;;10.79;69.93;99482.41;5013707;28;20038;-72
2023/12/13 03:36:21;;;;;;;89.05;85.05;;;;;;;10.77;69.92;99488.06;5022075;28;20532;-71
2023/12/13 03:38:46;;;;;;;89.35;85.30;;;;;;;10.79;70.06;99487.81;5016670;28;20026;-72
2023/12/13 03:41:12;;;;;;;97.00;92.30;;;;;;;10.78;70.02;99481.56;5015651;28;20045;-72
2023/12/13 03:43:37;;;;;;;88.60;84.35;;;;;;;10.78;70.09;99476.16;5019159;28;20065;-71
2023/12/13 03:46:04;;;;;;;88.35;84.28;;;;;;;10.77;70.03;99477.25;5020819;28;20038;-72
2023/12/13 03:48:29;;;;;;;88.78;84.88;;;;;;;10.77;70.04;99473.75;5022060;28;20659;-72
2023/12/13 03:50:55;;;;;;;90.22;86.15;;;;;;;10.77;69.91;99474.56;5018042;28;20117;-73
2023/12/13 03:53:20;;;;;;;91.25;87.15;;;;;;;10.77;69.90;99463.75;5024667;28;20409;-72
2023/12/13 03:55:45;;;;;;;89.70;85.35;;;;;;;10.78;69.87;99469.97;5026778;28;20048;-73
2023/12/13 03:58:11;;;;;;;90.45;86.25;;;;;;;10.78;70.06;99468.06;5019930;28;20415;-74
2023/12/13 04:00:36;;;;;;;91.97;87.93;;;;;;;10.77;70.02;99465.66;5014326;28;20471;-73
2023/12/13 04:03:02;;;;;;;88.47;83.93;;;;;;;10.77;70.01;99473.75;5023707;28;20048;-74
2023/12/13 04:05:28;;;;;;;89.00;84.28;;;;;;;10.77;69.86;99469.16;5031208;28;20038;-71
2023/12/13 04:07:53;;;;;;;86.75;82.90;;;;;;;10.77;69.88;99468.34;5033395;28;20072;-72
2023/12/13 04:10:19;;;;;;;84.03;80.20;;;;;;;10.77;69.97;99471.06;5020493;28;20339;-73
2023/12/13 04:12:44;;;;;;;88.80;84.85;;;;;;;10.76;69.77;99470.25;5037703;28;20041;-71
2023/12/13 04:15:09;;;;;;;86.95;82.93;;;;;;;10.75;69.88;99465.91;5019876;28;20481;-72
2023/12/13 04:17:35;;;;;;;86.70;82.18;;;;;;;10.76;69.90;99470.25;5030870;28;20099;-72
2023/12/13 04:20:00;;;;;;;89.72;85.72;;;;;;;10.75;69.85;99467.81;5014093;28;20094;-71
2023/12/13 04:22:26;;;;;;;92.22;86.80;;;;;;;10.75;69.91;99463.22;5013965;28;20117;-72
2023/12/13 04:24:51;;;;;;;83.40;78.70;;;;;;;10.74;69.99;99467.00;5042087;28;20092;-71
2023/12/13 04:27:16;;;;;;;87.80;83.90;;;;;;;10.75;69.98;99471.31;5030250;28;20495;-73
2023/12/13 04:29:43;;;;;;;89.30;85.20;;;;;;;10.75;69.97;99465.91;5021036;28;20489;-72
2023/12/13 04:32:09;;;;;;;91.43;87.07;;;;;;;10.75;70.11;99470.53;5033192;28;20178;-73
2023/12/13 04:34:34;;;;;;;87.25;83.35;;;;;;;10.75;69.85;99462.41;5024133;28;20537;-72
2023/12/13 04:37:00;;;;;;;91.18;87.07;;;;;;;10.74;69.87;99464.31;5025948;28;20092;-72
2023/12/13 04:39:25;;;;;;;84.93;80.43;;;;;;;10.75;69.75;99462.41;5031562;28;20116;-72
2023/12/13 04:41:50;;;;;;;87.00;82.90;;;;;;;10.76;69.92;99464.03;5015473;28;20354;-72
2023/12/13 04:44:16;;;;;;;82.13;78.53;;;;;;;10.74;69.82;99466.22;5039229;28;20040;-74
2023/12/13 04:46:41;;;;;;;87.90;83.78;;;;;;;10.74;70.19;99463.50;5033562;28;20033;-72
2023/12/13 04:49:07;;;;;;;91.95;87.80;;;;;;;10.73;69.81;99465.38;5014884;28;20129;-72
2023/12/13 04:51:32;;;;;;;90.93;86.47;;;;;;;10.74;69.73;99460.81;5031782;28;20038;-72
2023/12/13 04:53:58;;;;;;;85.05;81.28;;;;;;;10.74;69.95;99464.31;5032798;28;20478;-72
2023/12/13 04:56:24;;;;;;;88.07;83.97;;;;;;;10.74;70.20;99458.09;5022238;28;20087;-73
2023/12/13 04:58:50;;;;;;;88.70;84.80;;;;;;;10.74;69.81;99466.22;5030869;28;20121;-73
2023/12/13 05:01:15;;;;;;;86.03;82.13;;;;;;;10.73;69.98;99457.28;5031144;28;20104;-72
2023/12/13 05:03:41;;;;;;;86.63;81.90;;;;;;;10.74;69.71;99460.81;5030657;28;20095;-72
2023/12/13 05:06:07;;;;;;;87.45;82.43;;;;;;;10.73;69.72;99462.69;5026897;28;20034;-71
2023/12/13 05:08:33;;;;;;;90.72;86.50;;;;;;;10.74;69.80;99460.81;5024057;28;20065;-72
2023/12/13 05:10:59;;;;;;;92.25;88.22;;;;;;;10.73;69.72;99468.06;5016855;28;20088;-73
2023/12/13 05:13:25;;;;;;;89.45;85.45;;;;;;;10.72;69.84;99455.66;5017553;28;20038;-72
2023/12/13 05:15:51;;;;;;;93.57;89.25;;;;;;;10.72;69.78;99463.78;5025243;28;20037;-72
2023/12/13 05:18:16;;;;;;;92.57;88.45;;;;;;;10.71;69.93;99458.63;5004752;28;20398;-72
2023/12/13 05:20:42;;;;;;;89.90;85.68;;;;;;;10.71;69.70;99458.63;5016618;28;20502;-73
2023/12/13 05:23:07;;;;;;;88.88;84.93;;;;;;;10.71;69.96;99458.63;5012452;28;20092;-72
2023/12/13 05:25:33;;;;;;;88.90;84.80;;;;;;;10.70;69.92;99457.84;5012328;28;20489;-73
2023/12/13 05:27:58;;;;;;;92.72;88.53;;;;;;;10.70;69.87;99455.13;5025417;28;20431;-73
2023/12/13 05:30:24;;;;;;;90.45;85.97;;;;;;;10.70;69.94;99448.94;5024905;28;20363;-72
2023/12/13 05:32:52;;;;;;;91.45;87.35;;;;;;;10.70;70.07;99454.34;5012545;28;20401;-73
2023/12/13 05:35:18;;;;;;;89.00;84.63;;;;;;;10.71;69.88;99455.94;5013849;28;20034;-71
2023/12/13 05:37:43;;;;;;;88.93;84.65;;;;;;;10.70;69.93;99449.72;5025309;28;20132;-72
2023/12/13 05:40:09;;;;;;;89.88;85.88;;;;;;;10.71;69.88;99445.13;5021926;28;20457;-71
2023/12/13 05:42:34;;;;;;;85.53;81.45;;;;;;;10.71;69.86;99450.53;4994777;28;20390;-74
2023/12/13 05:45:00;;;;;;;92.35;87.35;;;;;;;10.70;69.75;99449.72;5012316;28;20487;-73
2023/12/13 05:47:25;;;;;;;87.35;83.45;;;;;;;10.71;69.75;99455.94;5024081;28;20033;-72
2023/12/13 05:49:51;;;;;;;88.28;83.47;;;;;;;10.71;69.93;99448.66;5030462;28;20102;-73
2023/12/13 05:52:18;;;;;;;86.47;81.13;;;;;;;10.71;69.93;99450.53;5030317;28;20120;-72
2023/12/13 05:54:43;;;;;;;90.60;86.10;;;;;;;10.71;69.75;99450.53;5025570;28;20063;-74
2023/12/13 05:57:09;;;;;;;88.65;84.50;;;;;;;10.71;69.93;99450.53;5013031;28;20042;-72
2023/12/13 05:59:35;;;;;;;84.72;80.90;;;;;;;10.71;69.86;99455.94;5038791;28;21156;-72
2023/12/13 06:02:00;;;;;;;91.30;87.22;;;;;;;10.71;69.84;99461.34;5018780;28;20057;-73
2023/12/13 06:04:25;;;;;;;92.25;88.18;;;;;;;10.70;69.84;99468.63;5031054;28;20041;-71
2023/12/13 06:06:51;;;;;;;89.97;85.90;;;;;;;10.70;69.87;99459.72;5029462;28;20040;-73
2023/12/13 06:09:16;;;;;;;88.50;84.53;;;;;;;10.68;69.83;99457.28;5024166;28;20437;-73
2023/12/13 06:11:42;;;;;;;91.82;87.00;;;;;;;10.69;69.90;99461.63;5028929;28;20477;-73
2023/12/13 06:14:07;;;;;;;85.75;81.53;;;;;;;10.70;69.70;99460.53;5030125;28;20480;-74
2023/12/13 06:16:33;;;;;;;86.70;82.60;;;;;;;10.70;69.70;99465.94;5025476;28;20474;-72
2023/12/13 06:18:58;;;;;;;88.35;84.35;;;;;;;10.70;69.70;99462.44;5030700;28;20060;-72
2023/12/13 06:21:24;;;;;;;83.22;79.32;;;;;;;10.70;69.87;99470.53;5028672;28;20041;-72
2023/12/13 06:23:49;;;;;;;87.43;83.45;;;;;;;10.68;69.55;99462.69;5013169;28;20034;-73
2023/12/13 06:26:14;;;;;;;88.93;85.03;;;;;;;10.68;69.78;99465.41;5012498;28;20497;-72
2023/12/13 06:28:40;;;;;;;87.93;83.93;;;;;;;10.68;69.86;99462.69;4999520;28;20116;-72
2023/12/13 06:31:05;;;;;;;83.88;79.93;;;;;;;10.68;69.54;99468.09;5020761;28;20034;-71
2023/12/13 06:33:31;;;;;;;90.15;85.70;;;;;;;10.68;69.74;99470.78;5016638;28;20054;-71
2023/12/13 06:35:56;;;;;;;86.63;82.80;;;;;;;10.68;69.75;99470.00;5021300;28;20092;-74
2023/12/13 06:38:22;;;;;;;87.57;83.03;;;;;;;10.67;69.91;99461.09;5012230;28;20191;-71
2023/12/13 06:40:47;;;;;;;87.88;83.65;;;;;;;10.67;69.84;99463.78;5023726;28;20486;-71
2023/12/13 06:43:13;;;;;;;90.40;86.22;;;;;;;10.67;69.95;99460.28;5026416;28;20034;-72
2023/12/13 06:45:38;;;;;;;86.00;82.15;;;;;;;10.68;69.89;99467.28;5023198;28;20669;-73
2023/12/13 06:48:04;;;;;;;83.53;79.82;;;;;;;10.67;69.99;99461.09;5029896;28;20025;-71
2023/12/13 06:50:30;;;;;;;84.53;80.68;;;;;;;10.67;69.76;99458.38;5030763;28;20080;-72
2023/12/13 06:52:55;;;;;;;89.72;85.07;;;;;;;10.67;69.79;99463.78;5034245;28;20140;-74
2023/12/13 06:55:21;;;;;;;91.30;87.10;;;;;;;10.68;69.67;99461.88;5028767;28;20040;-73
2023/12/13 06:57:47;;;;;;;84.72;80.88;;;;;;;10.68;69.87;99467.28;5018845;28;20050;-73
2023/12/13 07:00:13;;;;;;;88.65;84.72;;;;;;;10.68;69.96;99462.69;5020291;28;20496;-73
2023/12/13 07:02:39;;;;;;;87.53;83.20;;;;;;;10.70;69.91;99470.53;5025613;28;20430;-73
2023/12/13 07:05:07;;;;;;;90.07;86.05;;;;;;;10.68;69.74;99461.88;5011374;28;20168;-72
2023/12/13 07:07:32;;;;;;;89.57;85.40;;;;;;;10.70;69.80;99467.84;5009974;28;20099;-72
2023/12/13 07:09:58;;;;;;;88.95;85.00;;;;;;;10.68;69.70;99465.41;5023302;28;20549;-72
2023/12/13 07:12:27;;;;;;;95.78;89.82;;;;;;;10.69;69.68;99464.31;5025537;28;20041;-73
2023/12/13 07:14:53;;;;;;;88.70;84.60;;;;;;;10.68;69.75;99462.69;5017509;28;20425;-72
2023/12/13 07:17:19;;;;;;;85.43;81.55;;;;;;;10.68;69.74;99465.41;5010440;28;20033;-72
2023/12/13 07:19:44;;;;;;;90.90;86.05;;;;;;;10.68;69.87;99461.88;5016468;28;20073;-74
2023/12/13 07:22:10;;;;;;;85.43;81.53;;;;;;;10.68;69.51;99464.59;5055111;28;20030;-72
2023/12/13 07:24:36;;;;;;;89.32;84.93;;;;;;;10.67;69.73;99469.19;5018834;28;20039;-73
2023/12/13 07:27:02;;;;;;;90.10;85.95;;;;;;;10.67;69.61;99468.38;5018462;28;20034;-72
2023/12/13 07:29:29;;;;;;;93.63;89.07;;;;;;;10.66;69.85;99470.28;5024398;28;20152;-71
2023/12/13 07:31:55;;;;;;;87.03;83.05;;;;;;;10.66;69.75;99472.97;5029412;28;20033;-70
2023/12/13 07:34:20;;;;;;;87.38;83.47;;;;;;;10.65;69.61;99476.75;5026265;28;20037;-72
2023/12/13 07:36:48;;;;;;;88.38;84.13;;;;;;;10.65;69.67;99473.25;5028901;28;20091;-71
2023/12/13 07:39:15;;;;;;;88.15;84.05;;;;;;;10.65;69.76;99474.06;5030991;28;20121;-72
2023/12/13 07:41:41;;;;;;;88.55;84.43;;;;;;;10.66;69.73;99475.69;5027513;28;20486;-74
2023/12/13 07:44:07;;;;;;;86.40;82.57;;;;;;;10.67;69.82;99479.19;5024550;28;20076;-72
2023/12/13 07:46:32;;;;;;;92.15;87.93;;;;;;;10.66;69.85;99481.09;5029638;28;20102;-73
2023/12/13 07:49:03;;;;;;;88.35;84.35;;;;;;;10.66;69.96;99482.97;5028206;28;20049;-70
2023/12/13 07:51:29;;;;;;;86.13;81.72;;;;;;;10.65;69.94;99484.84;5029368;28;20121;-72
2023/12/13 07:53:55;;;;;;;91.65;87.35;;;;;;;10.64;70.12;99483.25;5028934;28;20029;-73
2023/12/13 07:56:21;;;;;;;90.78;85.40;;;;;;;10.64;70.05;99480.56;5024835;28;20095;-71
2023/12/13 07:58:46;;;;;;;89.45;85.45;;;;;;;10.65;70.08;99486.75;5032100;28;20110;-72
2023/12/13 08:01:14;;;;;;;87.63;83.30;;;;;;;10.64;69.90;99491.34;5029772;28;20364;-72
2023/12/13 08:03:40;;;;;;;89.55;85.32;;;;;;;10.64;69.97;99488.66;5028810;28;20045;-72
2023/12/13 08:06:12;;;;;;;93.25;89.13;;;;;;;10.64;70.01;99487.84;5025700;28;20362;-73
2023/12/13 08:08:39;;;;;;;91.22;86.47;;;;;;;10.64;69.85;99488.66;5030819;28;20083;-72
2023/12/13 08:11:05;;;;;;;87.70;83.65;;;;;;;10.64;69.80;99493.25;5028071;28;20034;-72
2023/12/13 08:13:30;;;;;;;85.90;82.07;;;;;;;10.64;69.78;99496.75;5025613;28;20037;-74
2023/12/13 08:15:55;;;;;;;92.60;88.07;;;;;;;10.65;69.73;99492.94;5012220;28;20477;-75
2023/12/13 08:18:21;;;;;;;95.55;90.50;;;;;;;10.66;69.85;99499.16;5028508;28;20049;-71
2023/12/13 08:20:47;;;;;;;90.60;86.43;;;;;;;10.66;69.77;99507.25;5025110;28;20108;-72
2023/12/13 08:23:13;;;;;;;92.72;88.45;;;;;;;10.66;69.90;99500.00;5029582;28;20049;-73
2023/12/13 08:25:38;;;;;;;84.75;80.75;;;;;;;10.66;69.81;99502.69;5027837;28;20183;-72
2023/12/13 08:28:04;;;;;;;89.90;85.75;;;;;;;10.66;69.98;99505.41;5022623;28;20436;-71
2023/12/13 08:30:29;;;;;;;87.47;82.15;;;;;;;10.67;69.95;99501.59;5028496;28;20040;-72
2023/12/13 08:32:54;;;;;;;86.82;82.82;;;;;;;10.67;69.95;99504.31;5027455;28;20064;-72
2023/12/13 08:35:20;;;;;;;91.95;87.75;;;;;;;10.67;70.08;99506.19;5025817;28;20037;-73
2023/12/13 08:37:45;;;;;;;90.88;86.50;;;;;;;10.68;70.02;99510.50;5028430;28;20034;-75
2023/12/13 08:40:11;;;;;;;85.63;81.55;;;;;;;10.67;69.86;99512.41;5029168;28;20068;-72
2023/12/13 08:42:37;;;;;;;88.93;84.80;;;;;;;10.68;69.78;99513.19;5029292;28;20025;-72
2023/12/13 08:45:04;;;;;;;89.38;84.78;;;;;;;10.67;69.65;99517.81;5023977;28;20041;-74
2023/12/13 08:47:29;;;;;;;90.68;86.10;;;;;;;10.68;69.78;99510.50;5027864;28;20035;-72
2023/12/13 08:49:54;;;;;;;96.68;91.88;;;;;;;10.70;69.91;99514.53;5025751;28;20029;-74
2023/12/13 08:52:20;;;;;;;91.78;87.47;;;;;;;10.70;69.78;99519.94;5025980;28;20117;-72
2023/12/13 08:54:46;;;;;;;88.93;84.30;;;;;;;10.70;69.79;99522.66;5025163;28;20030;-74
2023/12/13 08:57:11;;;;;;;92.40;87.30;;;;;;;10.70;69.73;99522.66;5027732;28;20059;-73
2023/12/13 08:59:37;;;;;;;87.25;82.38;;;;;;;10.70;69.75;99522.66;5025795;28;20033;-74
2023/12/13 09:02:03;;;;;;;87.35;82.85;;;;;;;10.71;69.71;99532.38;5024890;28;20038;-74
2023/12/13 09:04:28;;;;;;;96.80;92.20;;;;;;;10.72;69.90;99538.59;5027932;28;20405;-74
2023/12/13 09:06:53;;;;;;;93.25;88.45;;;;;;;10.72;69.89;99530.50;5026253;28;20052;-71
2023/12/13 09:09:19;;;;;;;90.45;86.05;;;;;;;10.72;70.07;99536.69;5022858;28;20033;-72
2023/12/13 09:11:46;;;;;;;89.47;85.28;;;;;;;10.72;69.82;99539.41;5028795;28;20041;-72
2023/12/13 09:14:11;;;;;;;88.10;83.63;;;;;;;10.73;69.81;99540.19;5029636;28;20044;-72
2023/12/13 09:16:38;;;;;;;94.15;88.60;;;;;;;10.72;69.84;99544.81;5021567;28;20370;-72
2023/12/13 09:19:07;;;;;;;85.10;81.20;;;;;;;10.72;69.80;99544.81;5023330;28;20041;-73
2023/12/13 09:21:33;;;;;;;88.75;84.35;;;;;;;10.73;69.70;99548.31;5026945;28;20045;-72
2023/12/13 09:23:58;;;;;;;89.50;85.22;;;;;;;10.73;70.00;99549.09;5027397;28;20091;-72
2023/12/13 09:26:24;;;;;;;86.20;82.07;;;;;;;10.73;69.75;99551.81;5021663;28;20021;-72
2023/12/13 09:28:49;;;;;;;87.63;82.75;;;;;;;10.74;69.99;99552.63;5026215;28;20546;-72
2023/12/13 09:31:15;;;;;;;87.65;82.97;;;;;;;10.73;69.94;99554.50;5025769;28;20041;-73
2023/12/13 09:33:40;;;;;;;93.32;88.50;;;;;;;10.74;70.11;99556.16;5026701;28;20025;-74
2023/12/13 09:36:07;;;;;;;94.30;89.90;;;;;;;10.73;70.12;99549.09;5007807;28;20436;-74
2023/12/13 09:38:32;;;;;;;90.63;86.07;;;;;;;10.74;70.05;99550.75;5025453;28;20099;-72
2023/12/13 09:40:58;;;;;;;90.93;85.32;;;;;;;10.73;70.05;99553.72;5026090;28;20045;-71
2023/12/13 09:43:25;;;;;;;87.97;83.57;;;;;;;10.72;69.91;99552.91;5022094;28;20040;-73
2023/12/13 09:45:53;;;;;;;88.32;83.72;;;;;;;10.73;70.07;99556.41;5027024;28;20029;-71
2023/12/13 09:48:22;;;;;;;92.60;88.25;;;;;;;10.74;70.08;99566.16;5024544;28;20052;-73
2023/12/13 09:50:51;;;;;;;;;;;;;;;10.74;69.97;99563.44;5027354;28;20040;-71
2023/12/13 09:53:20;;;;;;;87.70;81.80;;;;;;;10.72;69.86;99562.91;5025233;28;20356;-72
2023/12/13 09:55:46;;;;;;;87.63;83.28;;;;;;;10.72;69.96;99563.69;5026827;28;20497;-70
2023/12/13 09:58:11;;;;;;;90.60;85.68;;;;;;;10.72;69.80;99569.09;5022087;28;20034;-72
2023/12/13 10:00:37;;;;;;;89.65;85.13;;;;;;;10.72;69.81;99577.22;5009290;28;20041;-74
2023/12/13 10:03:02;;;;;;;86.70;82.75;;;;;;;10.72;69.97;99574.50;4990022;28;20044;-72
2023/12/13 10:05:31;;;;;;;92.93;88.55;;;;;;;10.72;70.18;99576.41;5022990;28;20038;-71
2023/12/13 10:08:01;;;;;;;91.20;86.78;;;;;;;10.73;70.24;99586.13;5025493;28;20025;-72
2023/12/13 10:10:31;;;;;;;88.70;83.85;;;;;;;10.73;69.86;99580.72;5027076;28;20116;-72
2023/12/13 10:13:01;;;;;;;93.45;89.05;;;;;;;10.73;70.10;99584.22;5025547;28;20034;-72
2023/12/13 10:15:34;;;;;;;90.40;85.88;;;;;;;10.74;69.89;99591.25;5023861;28;20033;-72
2023/12/13 10:18:00;;;;;;;90.72;85.07;;;;;;;10.75;70.09;99592.88;5025590;28;20037;-73
2023/12/13 10:20:26;;;;;;;94.10;89.32;;;;;;;10.76;70.35;99589.09;5024471;28;20057;-72
2023/12/13 10:22:52;;;;;;;95.05;90.10;;;;;;;10.77;70.13;99592.59;5027059;28;20088;-71
2023/12/13 10:25:19;;;;;;;91.43;86.82;;;;;;;10.77;69.98;99593.41;5026243;28;20132;-71
2023/12/13 10:27:45;;;;;;;90.55;85.68;;;;;;;10.79;70.05;99598.56;5026381;28;20029;-71
2023/12/13 10:30:12;;;;;;;87.68;83.78;;;;;;;10.79;69.89;99593.16;5021411;28;20057;-75
2023/12/13 10:32:38;;;;;;;88.75;84.63;;;;;;;10.79;70.14;99588.56;5026019;28;20526;-72
2023/12/13 10:35:05;;;;;;;88.45;84.35;;;;;;;10.81;70.11;99591.78;5023752;28;20127;-71
2023/12/13 10:37:33;;;;;;;90.80;86.55;;;;;;;10.82;69.98;99585.28;5028307;28;20044;-73
2023/12/13 10:39:59;;;;;;;91.15;86.00;;;;;;;10.83;69.97;99594.19;5024496;28;20041;-72
2023/12/13 10:42:25;;;;;;;93.97;89.05;;;;;;;10.82;69.94;99593.41;5026312;28;20041;-73
2023/12/13 10:44:52;;;;;;;92.65;88.18;;;;;;;10.83;69.98;99594.19;5022740;28;20044;-72
2023/12/13 10:47:23;;;;;;;92.95;88.63;;;;;;;10.85;69.96;99580.44;5028721;28;20034;-72
2023/12/13 10:49:51;;;;;;;88.60;84.30;;;;;;;10.86;69.91;99588.28;5018708;28;20100;-75
2023/12/13 10:52:19;;;;;;;93.97;88.60;;;;;;;10.86;70.07;99584.75;5024494;28;20044;-74
2023/12/13 10:54:45;;;;;;;90.80;86.30;;;;;;;10.85;70.10;99589.34;5023830;28;20491;-72
2023/12/13 10:57:12;;;;;;;93.50;88.82;;;;;;;10.87;69.88;99589.09;5024614;28;20090;-75
2023/12/13 10:59:41;;;;;;;91.60;87.00;;;;;;;10.87;70.24;99583.69;5022897;28;20500;-73
2023/12/13 11:02:08;;;;;;;96.78;91.63;;;;;;;10.87;70.05;99587.19;5018210;28;20033;-72
2023/12/13 11:04:35;;;;;;;92.70;87.95;;;;;;;10.89;70.06;99589.63;5022629;28;20041;-72
2023/12/13 11:07:06;;;;;;;90.13;85.28;;;;;;;10.90;69.96;99592.03;5026865;28;20065;-72
2023/12/13 11:09:31;;;;;;;94.53;89.85;;;;;;;10.90;69.95;99592.03;5027121;28;20042;-71
2023/12/13 11:11:58;;;;;;;96.88;92.32;;;;;;;10.91;69.98;99590.13;5030938;28;20033;-71